createdAt,value
2022-08-05T00:03:51.572Z,18.1
2022-08-05T00:14:12.049Z,18.2
2022-08-05T00:16:16.208Z,18.2
2022-08-05T00:22:57.489Z,18.3
2022-08-05T00:24:55.014Z,18.3
2022-08-05T00:26:55.441Z,18.3
2022-08-05T00:31:07.610Z,18.3
2022-08-05T00:33:15.621Z,18.3
2022-08-05T00:35:14.983Z,18.3
2022-08-05T00:37:19.172Z,18.2
2022-08-05T00:39:24.471Z,18.2
2022-08-05T00:41:27.384Z,18.2
2022-08-05T00:43:46.629Z,18.2
2022-08-05T00:45:43.861Z,18.3
2022-08-05T00:47:56.746Z,18.2
2022-08-05T00:49:51.703Z,18.1
2022-08-05T00:51:52.307Z,18.1
2022-08-05T00:54:02.312Z,18.1
2022-08-05T00:55:59.255Z,18.1
2022-08-05T00:58:06.403Z,18.1
2022-08-05T01:00:11.175Z,18
2022-08-05T01:02:14.630Z,18
2022-08-05T01:04:20.346Z,18.1
2022-08-05T01:06:32.693Z,18.1
2022-08-05T01:08:42.277Z,18.1
2022-08-05T01:10:31.137Z,18.1
2022-08-05T01:12:38.284Z,18.1
2022-08-05T01:14:42.399Z,18.1
2022-08-05T01:16:46.521Z,18
2022-08-05T01:17:53.811Z,18.1
2022-08-05T01:20:01.498Z,18
2022-08-05T01:21:58.360Z,18.1
2022-08-05T01:24:03.344Z,18.1
2022-08-05T01:30:18.858Z,18.1
2022-08-05T01:32:22.020Z,18.1
2022-08-05T01:34:26.773Z,18
2022-08-05T01:36:30.257Z,18
2022-08-05T01:38:34.374Z,18
2022-08-05T01:44:54.154Z,18
2022-08-05T01:46:53.881Z,18.1
2022-08-05T01:48:58.021Z,18
2022-08-05T01:53:06.242Z,18
2022-08-05T01:58:11.160Z,17.9
2022-08-05T02:03:33.921Z,17.9
2022-08-05T02:05:34.316Z,17.9
2022-08-05T02:07:38.131Z,17.9
2022-08-05T02:14:57.132Z,18
2022-08-05T02:23:16.635Z,18
2022-08-05T02:29:59.927Z,17.9
2022-08-05T02:31:34.874Z,17.9
2022-08-05T02:33:38.821Z,17.9
2022-08-05T02:35:49.899Z,17.9
2022-08-05T02:37:54.081Z,18
2022-08-05T02:39:52.723Z,18
2022-08-05T02:42:00.651Z,18
2022-08-05T02:44:02.711Z,18.1
2022-08-05T02:46:05.000Z,18.1
2022-08-05T02:48:12.530Z,18
2022-08-05T02:50:13.216Z,18
2022-08-05T02:52:29.371Z,18
2022-08-05T02:54:35.726Z,18
2022-08-05T02:56:28.594Z,18.1
2022-08-05T02:58:32.735Z,18.1
2022-08-05T03:00:36.845Z,18
2022-08-05T03:02:40.962Z,18
2022-08-05T03:04:45.162Z,18
2022-08-05T03:06:56.097Z,18
2022-08-05T03:08:56.378Z,18
2022-08-05T03:11:41.102Z,17.9
2022-08-05T03:18:17.334Z,17.9
2022-08-05T03:20:23.719Z,17.9
2022-08-05T03:22:32.202Z,17.9
2022-08-05T03:24:31.798Z,17.9
2022-08-05T03:26:35.913Z,17.9
2022-08-05T03:28:40.047Z,17.9
2022-08-05T03:30:44.160Z,17.9
2022-08-05T03:32:48.265Z,17.8
2022-08-05T03:34:55.423Z,17.9
2022-08-05T03:36:59.550Z,17.9
2022-08-05T03:39:03.723Z,17.8
2022-08-05T03:41:10.816Z,17.8
2022-08-05T03:45:22.498Z,17.8
2022-08-05T03:49:31.185Z,17.8
2022-08-05T03:52:48.554Z,17.8
2022-08-05T03:55:54.081Z,17.8
2022-08-05T03:56:01.143Z,17.7
2022-08-05T03:59:54.744Z,17.7
2022-08-05T04:01:52.299Z,17.8
2022-08-05T04:04:10.321Z,17.8
2022-08-05T04:08:29.978Z,17.7
2022-08-05T04:14:39.905Z,17.7
2022-08-05T04:16:47.074Z,17.7
2022-08-05T04:18:53.890Z,17.7
2022-08-05T04:20:55.315Z,17.7
2022-08-05T04:22:59.439Z,17.7
2022-08-05T04:25:03.571Z,17.7
2022-08-05T04:27:07.673Z,17.7
2022-08-05T04:29:11.827Z,17.6
2022-08-05T04:31:18.936Z,17.6
2022-08-05T04:33:36.384Z,17.6
2022-08-05T04:35:27.201Z,17.6
2022-08-05T04:38:01.010Z,17.6
2022-08-05T04:39:35.739Z,17.6
2022-08-05T04:41:39.536Z,17.6
2022-08-05T04:43:48.304Z,17.6
2022-08-05T04:45:55.688Z,17.5
2022-08-05T04:47:54.904Z,17.5
2022-08-05T04:50:02.508Z,17.5
2022-08-05T04:52:03.157Z,17.5
2022-08-05T04:54:07.263Z,17.6
2022-08-05T04:56:33.029Z,17.5
2022-08-05T04:58:15.508Z,17.5
2022-08-05T05:05:34.431Z,17.5
2022-08-05T05:11:54.120Z,17.5
2022-08-05T05:13:55.282Z,17.5
2022-08-05T05:16:02.210Z,17.5
2022-08-05T05:20:06.267Z,17.5
2022-08-05T05:22:24.669Z,17.5
2022-08-05T05:24:14.489Z,17.5
2022-08-05T05:26:18.640Z,17.6
2022-08-05T05:28:25.723Z,17.6
2022-08-05T05:30:33.524Z,17.6
2022-08-05T05:32:33.959Z,17.6
2022-08-05T05:34:38.070Z,17.6
2022-08-05T05:36:42.194Z,17.7
2022-08-05T05:38:46.308Z,17.7
2022-08-05T05:40:51.598Z,17.7
2022-08-05T05:45:03.103Z,17.8
2022-08-05T05:47:21.742Z,17.9
2022-08-05T05:49:22.309Z,17.9
2022-08-05T05:51:15.604Z,17.9
2022-08-05T05:53:21.153Z,17.9
2022-08-05T05:55:22.237Z,17.9
2022-08-05T05:57:42.733Z,17.9
2022-08-05T05:59:33.496Z,17.9
2022-08-05T06:01:39.412Z,17.9
2022-08-05T06:11:02.261Z,17.9
2022-08-05T06:13:06.359Z,17.9
2022-08-05T06:15:16.478Z,18.1
2022-08-05T06:17:21.697Z,18.2
2022-08-05T06:19:26.040Z,18.3
2022-08-05T06:21:22.835Z,18.3
2022-08-05T06:23:26.939Z,18.3
2022-08-05T06:26:13.405Z,18.5
2022-08-05T06:29:49.436Z,18.3
2022-08-05T06:31:46.513Z,18.4
2022-08-05T06:36:07.959Z,18.4
2022-08-05T06:40:05.952Z,18.6
2022-08-05T06:42:10.063Z,18.7
2022-08-05T06:44:14.174Z,18.7
2022-08-05T06:46:18.290Z,18.8
2022-08-05T06:48:52.558Z,18.8
2022-08-05T06:50:26.629Z,18.9
2022-08-05T06:52:36.672Z,18.9
2022-08-05T06:54:37.762Z,18.9
2022-08-05T06:58:46.768Z,19
2022-08-05T06:59:57.950Z,18.9
2022-08-05T07:01:53.723Z,19
2022-08-05T07:03:57.819Z,19.1
2022-08-05T07:06:05.381Z,19.1
2022-08-05T07:10:14.929Z,19.1
2022-08-05T07:12:17.329Z,19.1
2022-08-05T07:18:02.276Z,19.1
2022-08-05T07:20:37.096Z,18.9
2022-08-05T07:24:53.705Z,19.2
2022-08-05T07:37:12.819Z,19.5
2022-08-05T07:39:24.622Z,19.5
2022-08-05T07:43:25.179Z,19.8
2022-08-05T07:47:41.940Z,19.8
2022-08-05T07:51:52.943Z,20.3
2022-08-05T07:53:50.593Z,20.2
2022-08-05T07:56:05.202Z,20.6
2022-08-05T07:58:54.413Z,20.4
2022-08-05T08:02:26.501Z,20.4
2022-08-05T08:04:37.970Z,20.9
2022-08-05T08:10:48.846Z,21.4
2022-08-05T08:19:04.823Z,23.2
2022-08-05T08:21:09.849Z,24.2
2022-08-05T08:24:02.726Z,25.2
2022-08-05T08:27:21.996Z,26.7
2022-08-05T08:30:03.475Z,26.8
2022-08-05T08:31:29.529Z,26.3
2022-08-05T08:33:38.027Z,24.6
2022-08-05T08:35:52.785Z,23.5
2022-08-05T08:41:59.894Z,22
2022-08-05T08:45:20.314Z,21.4
2022-08-05T08:46:01.322Z,20.9
2022-08-05T08:48:13.069Z,20.7
2022-08-05T08:50:33.107Z,20.7
2022-08-05T08:52:16.689Z,20.7
2022-08-05T08:53:20.264Z,21.6
2022-08-05T08:55:32.082Z,21.5
2022-08-05T08:57:29.302Z,21.2
2022-08-05T08:59:33.643Z,23.3
2022-08-05T09:01:42.577Z,23.4
2022-08-05T09:03:45.159Z,23.2
2022-08-05T09:06:08.543Z,24.4
2022-08-05T09:09:56.444Z,23.6
2022-08-05T09:12:08.899Z,22.7
2022-08-05T09:14:54.368Z,22.5
2022-08-05T09:18:15.899Z,23.1
2022-08-05T09:24:28.244Z,22.1
2022-08-05T09:26:32.481Z,21.6
2022-08-05T09:28:36.466Z,21.3
2022-08-05T09:30:43.593Z,21.1
2022-08-05T09:32:47.697Z,21.1
2022-08-05T09:34:51.810Z,21.6
2022-08-05T09:36:59.140Z,21.9
2022-08-05T09:39:00.122Z,22.3
2022-08-05T09:41:04.148Z,22.9
2022-08-05T09:47:20.594Z,23.4
2022-08-05T09:49:23.606Z,23.3
2022-08-05T09:50:38.184Z,23.4
2022-08-05T09:52:31.316Z,23.5
2022-08-05T09:54:35.399Z,23.8
2022-08-05T09:58:47.451Z,23.8
2022-08-05T10:02:54.925Z,23.9
2022-08-05T10:07:19.681Z,24.5
2022-08-05T10:09:07.115Z,24.2
2022-08-05T10:11:11.225Z,24.2
2022-08-05T10:13:18.402Z,24.3
2022-08-05T10:15:22.428Z,24.2
2022-08-05T10:17:37.408Z,23.8
2022-08-05T10:19:31.892Z,23.8
2022-08-05T10:21:35.328Z,23.4
2022-08-05T10:23:58.995Z,23.1
2022-08-05T10:25:42.887Z,23.1
2022-08-05T10:30:06.519Z,22.7
2022-08-05T10:32:54.349Z,22.8
2022-08-05T10:34:02.303Z,22.9
2022-08-05T10:36:06.383Z,22.6
2022-08-05T10:40:18.246Z,22.6
2022-08-05T10:42:32.298Z,23.5
2022-08-05T10:44:25.814Z,23.6
2022-08-05T10:47:33.446Z,23.6
2022-08-05T10:49:48.796Z,23.7
2022-08-05T10:51:57.644Z,24.3
2022-08-05T10:53:45.789Z,24.4
2022-08-05T10:56:05.168Z,23.8
2022-08-05T10:57:56.965Z,23.6
2022-08-05T11:00:08.044Z,23.6
2022-08-05T11:02:05.590Z,23.8
2022-08-05T11:04:09.261Z,24
2022-08-05T11:06:15.866Z,24.6
2022-08-05T11:08:34.279Z,24.7
2022-08-05T11:14:57.667Z,23.9
2022-08-05T11:25:26.707Z,23
2022-08-05T11:27:00.356Z,23.4
2022-08-05T11:31:08.500Z,23.7
2022-08-05T11:33:13.736Z,23.7
2022-08-05T11:39:27.904Z,23.4
2022-08-05T11:44:06.535Z,23.1
2022-08-05T11:46:29.889Z,24.2
2022-08-05T11:48:04.824Z,24.6
2022-08-05T11:50:08.871Z,24.8
2022-08-05T11:52:16.005Z,23.4
2022-08-05T11:54:20.162Z,23.1
2022-08-05T11:56:33.410Z,23.2
2022-08-05T11:58:28.309Z,23
2022-08-05T12:00:38.331Z,23
2022-08-05T12:02:40.182Z,23.3
2022-08-05T12:08:53.279Z,23
2022-08-05T12:10:57.347Z,23.1
2022-08-05T12:13:01.451Z,23.4
2022-08-05T12:15:05.543Z,23
2022-08-05T12:20:27.271Z,23
2022-08-05T12:23:24.941Z,23.6
2022-08-05T12:27:33.430Z,23.3
2022-08-05T12:35:52.583Z,23.8
2022-08-05T12:37:56.579Z,23.6
2022-08-05T12:40:03.389Z,23.1
2022-08-05T12:41:04.256Z,22.7
2022-08-05T12:43:08.354Z,22.6
2022-08-05T12:45:12.449Z,23.3
2022-08-05T12:47:17.116Z,23.1
2022-08-05T12:49:25.643Z,23.1
2022-08-05T12:52:12.686Z,23.4
2022-08-05T12:53:37.177Z,22.8
2022-08-05T12:55:35.962Z,23
2022-08-05T12:58:38.734Z,22.8
2022-08-05T13:02:03.862Z,22.7
2022-08-05T13:03:55.355Z,22.5
2022-08-05T13:05:59.459Z,22.7
2022-08-05T13:08:03.983Z,22.9
2022-08-05T13:14:15.863Z,22.8
2022-08-05T13:16:20.069Z,22.7
2022-08-05T13:18:27.103Z,22.7
2022-08-05T13:20:32.111Z,22.5
2022-08-05T13:22:35.313Z,22.9
2022-08-05T13:24:51.143Z,23
2022-08-05T13:26:43.524Z,22.8
2022-08-05T13:28:47.619Z,22.6
2022-08-05T13:30:53.436Z,22.6
2022-08-05T13:33:00.879Z,23.4
2022-08-05T13:35:02.968Z,23.2
2022-08-05T13:37:07.138Z,23.4
2022-08-05T13:38:20.545Z,23.5
2022-08-05T13:40:24.547Z,23.7
2022-08-05T13:42:18.897Z,24
2022-08-05T13:44:22.938Z,24.1
2022-08-05T13:46:43.943Z,23.1
2022-08-05T13:52:42.421Z,22.6
2022-08-05T13:54:53.248Z,22.7
2022-08-05T13:56:51.856Z,22.9
2022-08-05T13:58:54.705Z,22.6
2022-08-05T14:01:01.856Z,22.4
2022-08-05T14:03:05.993Z,22.5
2022-08-05T14:05:11.499Z,22.4
2022-08-05T14:07:55.437Z,22.5
2022-08-05T14:09:18.215Z,22.4
2022-08-05T14:11:22.327Z,22.4
2022-08-05T14:13:26.498Z,22.8
2022-08-05T14:16:09.044Z,23.1
2022-08-05T14:17:37.671Z,23
2022-08-05T14:19:54.260Z,23.4
2022-08-05T14:22:09.021Z,23.2
2022-08-05T14:23:49.994Z,22.7
2022-08-05T14:25:54.452Z,22.8
2022-08-05T14:27:58.591Z,23
2022-08-05T14:30:05.329Z,22.9
2022-08-05T14:34:13.544Z,22.2
2022-08-05T14:35:20.831Z,22.1
2022-08-05T14:37:21.157Z,22
2022-08-05T14:39:25.315Z,21.6
2022-08-05T14:45:40.622Z,21.9
2022-08-05T14:48:04.066Z,21.9
2022-08-05T14:49:56.245Z,22.1
2022-08-05T14:51:52.921Z,21.9
2022-08-05T14:54:26.564Z,22
2022-08-05T14:56:01.163Z,21.9
2022-08-05T14:58:11.112Z,21.8
2022-08-05T15:00:12.409Z,21.7
2022-08-05T15:02:16.622Z,21.6
2022-08-05T15:06:28.076Z,21.6
2022-08-05T15:18:52.511Z,22.6
2022-08-05T15:20:56.543Z,22.3
2022-08-05T15:25:11.477Z,22.8
2022-08-05T15:27:11.862Z,23
2022-08-05T15:29:15.960Z,23.2
2022-08-05T15:34:05.015Z,22.8
2022-08-05T15:35:45.399Z,22.4
2022-08-05T15:38:32.760Z,21.7
2022-08-05T15:40:58.831Z,21.8
2022-08-05T15:41:59.315Z,22.2
2022-08-05T15:46:06.570Z,23.7
2022-08-05T15:48:10.675Z,24.1
2022-08-05T15:50:15.281Z,22.3
2022-08-05T15:58:36.851Z,20.7
2022-08-05T16:01:03.476Z,22.8
2022-08-05T16:02:42.466Z,25.1
2022-08-05T16:08:58.009Z,24.4
2022-08-05T16:11:01.949Z,24.9
2022-08-05T16:13:05.889Z,25.4
2022-08-05T16:15:09.965Z,23.8
2022-08-05T16:17:14.076Z,21.8
2022-08-05T16:19:25.359Z,21
2022-08-05T16:21:58.396Z,20.9
2022-08-05T16:23:53.369Z,23.9
2022-08-05T16:25:34.026Z,24.9
2022-08-05T16:27:47.206Z,24.5
2022-08-05T16:28:41.332Z,22.6
2022-08-05T16:30:45.235Z,21.8
2022-08-05T16:32:49.307Z,22.6
2022-08-05T16:34:53.405Z,22.1
2022-08-05T16:37:00.532Z,20.8
2022-08-05T16:39:04.717Z,20.9
2022-08-05T16:42:12.316Z,23.2
2022-08-05T16:43:12.864Z,25.3
2022-08-05T16:46:05.422Z,26.5
2022-08-05T16:47:28.545Z,26.5
2022-08-05T16:49:25.169Z,25.7
2022-08-05T16:51:42.568Z,22.1
2022-08-05T16:54:04.180Z,21.2
2022-08-05T16:55:47.030Z,20.7
2022-08-05T16:58:00.088Z,23.5
2022-08-05T17:00:00.302Z,23.3
2022-08-05T17:01:55.906Z,24.6
2022-08-05T17:03:56.859Z,23.6
2022-08-05T17:08:08.076Z,24.4
2022-08-05T17:10:12.601Z,25.7
2022-08-05T17:12:16.330Z,26.2
2022-08-05T17:14:34.450Z,26.3
2022-08-05T17:16:33.129Z,26.1
2022-08-05T17:18:28.478Z,26.1
2022-08-05T17:20:35.607Z,25.5
2022-08-05T17:22:39.659Z,25.2
2022-08-05T17:24:45.357Z,24.7
2022-08-05T17:25:47.267Z,25.1
2022-08-05T17:27:51.360Z,25
2022-08-05T17:29:59.653Z,24.9
2022-08-05T17:31:59.524Z,25
2022-08-05T17:34:06.548Z,25.2
2022-08-05T17:36:32.816Z,25
2022-08-05T17:38:14.674Z,25.3
2022-08-05T17:42:25.741Z,23.6
2022-08-05T17:44:32.513Z,23.6
2022-08-05T17:46:30.897Z,24.2
2022-08-05T17:50:42.065Z,23.8
2022-08-05T17:52:53.201Z,23.3
2022-08-05T17:54:50.183Z,23.7
2022-08-05T17:56:54.263Z,23.4
2022-08-05T17:58:59.896Z,23.5
2022-08-05T18:01:03.917Z,23.3
2022-08-05T18:03:11.027Z,23.6
2022-08-05T18:07:19.182Z,23.6
2022-08-05T18:13:36.728Z,23.5
2022-08-05T18:15:36.191Z,22.1
2022-08-05T18:18:00.440Z,20.5
2022-08-05T18:19:51.325Z,20.2
2022-08-05T18:22:09.592Z,19.5
2022-08-05T18:22:57.211Z,19.2
2022-08-05T18:24:58.431Z,19
2022-08-05T18:29:06.700Z,18.7
2022-08-05T18:31:13.797Z,18.7
2022-08-05T18:33:17.931Z,18.7
2022-08-05T18:40:31.571Z,18.5
2022-08-05T18:43:43.083Z,18.3
2022-08-05T18:45:45.763Z,18.1
2022-08-05T18:49:57.858Z,18.1
2022-08-05T18:52:05.204Z,18.1
2022-08-05T18:54:02.356Z,18.1
2022-08-05T18:56:07.902Z,18
2022-08-05T18:58:16.352Z,17.9
2022-08-05T19:00:20.297Z,17.9
2022-08-05T19:02:26.622Z,17.8
2022-08-05T19:04:26.087Z,17.7
2022-08-05T19:06:37.139Z,17.7
2022-08-05T19:08:34.349Z,17.6
2022-08-05T19:10:38.482Z,17.6
2022-08-05T19:12:43.279Z,17.5
2022-08-05T19:14:59.766Z,17.5
2022-08-05T19:16:53.934Z,17.5
2022-08-05T19:18:58.081Z,17.4
2022-08-05T19:21:22.642Z,17.3
2022-08-05T19:24:07.615Z,17.3
2022-08-05T19:25:33.398Z,17.2
2022-08-05T19:27:38.087Z,17.1
2022-08-05T19:29:42.212Z,17.1
2022-08-05T19:31:51.365Z,17.1
2022-08-05T19:33:56.696Z,17.1
2022-08-05T19:35:56.474Z,17
2022-08-05T19:38:06.812Z,17
2022-08-05T19:40:03.172Z,16.9
2022-08-05T19:42:10.077Z,16.8
2022-08-05T19:44:14.390Z,16.9
2022-08-05T19:46:29.664Z,16.8
2022-08-05T19:48:22.469Z,16.7
2022-08-05T19:50:26.603Z,16.7
2022-08-05T19:52:32.595Z,16.7
2022-08-05T19:54:34.977Z,16.7
2022-08-05T19:56:42.030Z,16.6
2022-08-05T19:58:53.844Z,16.6
2022-08-05T20:00:50.339Z,16.6
2022-08-05T20:02:54.447Z,16.6
2022-08-05T20:04:59.478Z,16.5
2022-08-05T20:07:02.729Z,16.5
2022-08-05T20:09:14.003Z,16.4
2022-08-05T20:11:14.000Z,16.3
2022-08-05T20:13:18.134Z,16.2
2022-08-05T20:15:23.220Z,16.2
2022-08-05T20:18:33.133Z,16.2
2022-08-05T20:20:34.096Z,16.2
2022-08-05T20:22:38.348Z,16.1
2022-08-05T20:24:45.424Z,16
2022-08-05T20:26:49.530Z,16
2022-08-05T20:28:53.659Z,15.9
2022-08-05T20:30:57.777Z,15.9
2022-08-05T20:33:01.996Z,15.9
2022-08-05T20:35:06.089Z,15.8
2022-08-05T20:41:24.111Z,15.8
2022-08-05T20:43:57.447Z,15.7
2022-08-05T20:45:56.467Z,15.7
2022-08-05T20:47:33.838Z,15.7
2022-08-05T20:49:39.983Z,15.6
2022-08-05T20:51:42.109Z,15.7
2022-08-05T20:57:57.497Z,15.5
2022-08-05T21:00:19.756Z,15.5
2022-08-05T21:02:05.806Z,15.5
2022-08-05T21:04:10.531Z,15.4
2022-08-05T21:06:27.894Z,15.3
2022-08-05T21:08:21.149Z,15.3
2022-08-05T21:12:29.389Z,15.3
2022-08-05T21:17:41.221Z,15.1
2022-08-05T21:21:52.502Z,15.1
2022-08-05T21:23:56.608Z,15.1
2022-08-05T21:28:04.849Z,15
2022-08-05T21:30:08.977Z,15
2022-08-05T21:32:18.405Z,14.9
2022-08-05T21:34:17.188Z,14.9
2022-08-05T21:36:29.796Z,14.8
2022-08-05T21:38:28.474Z,14.8
2022-08-05T21:40:32.568Z,14.8
2022-08-05T21:42:44.131Z,14.8
2022-08-05T21:46:44.971Z,14.7
2022-08-05T21:55:06.284Z,14.6
2022-08-05T21:59:24.367Z,14.5
2022-08-05T22:03:49.016Z,14.5
2022-08-05T22:07:40.262Z,14.4
2022-08-05T22:09:45.734Z,14.4
2022-08-05T22:14:48.703Z,14.5
2022-08-05T22:16:56.877Z,14.5
2022-08-05T22:18:59.943Z,14.5
2022-08-05T22:21:04.934Z,14.5
2022-08-05T22:25:18.250Z,14.5
2022-08-05T22:27:16.598Z,14.6
2022-08-05T22:29:26.610Z,14.6
2022-08-05T22:31:24.584Z,14.6
2022-08-05T22:33:56.753Z,14.7
2022-08-05T22:35:47.908Z,14.7
2022-08-05T22:39:44.090Z,14.8
2022-08-05T22:42:09.250Z,14.8
2022-08-05T22:43:52.247Z,14.9
2022-08-05T22:45:56.365Z,14.9
2022-08-05T22:52:22.909Z,14.7
2022-08-05T22:58:28.328Z,14.6
2022-08-05T23:02:35.913Z,14.6
2022-08-05T23:04:39.384Z,14.6
2022-08-05T23:06:43.478Z,14.7
2022-08-05T23:09:26.852Z,14.6
2022-08-05T23:11:05.886Z,14.6
2022-08-05T23:15:17.181Z,14.4
2022-08-05T23:17:24.175Z,14.4
2022-08-05T23:27:42.523Z,14.2
2022-08-05T23:31:53.000Z,14.1
2022-08-05T23:36:01.228Z,14
2022-08-05T23:38:05.342Z,14.1
2022-08-05T23:42:13.550Z,14
2022-08-05T23:46:24.774Z,14
2022-08-05T23:48:28.916Z,13.9
2022-08-05T23:50:33.000Z,13.9
2022-08-05T23:52:49.657Z,14
2022-08-05T23:54:41.213Z,14
2022-08-05T23:56:46.881Z,14
2022-08-05T23:58:53.944Z,14.1
